createdAt,value
2023-02-27T00:00:35.850Z,65.58
2023-02-27T00:03:02.351Z,65.36
2023-02-27T00:05:28.867Z,65.48
2023-02-27T00:07:55.362Z,65.16
2023-02-27T00:10:22.217Z,66.54
2023-02-27T00:12:48.789Z,66.18
2023-02-27T00:15:18.366Z,66.11
2023-02-27T00:17:45.238Z,66.19
2023-02-27T00:20:14.999Z,65.98
2023-02-27T00:22:42.283Z,68.65
2023-02-27T00:25:09.465Z,66.27
2023-02-27T00:27:36.994Z,68.18
2023-02-27T00:30:08.914Z,67.16
2023-02-27T00:32:36.771Z,66.27
2023-02-27T00:35:09.025Z,67.22
2023-02-27T00:37:35.815Z,66.53
2023-02-27T00:40:02.447Z,66.79
2023-02-27T00:42:30.862Z,66.35
2023-02-27T00:44:57.386Z,66.11
2023-02-27T00:47:23.956Z,66.52
2023-02-27T00:49:50.583Z,66.22
2023-02-27T00:52:17.063Z,67.17
2023-02-27T00:54:43.678Z,66.72
2023-02-27T00:57:10.096Z,67.00
2023-02-27T00:59:36.637Z,67.38
2023-02-27T01:02:03.158Z,67.01
2023-02-27T01:04:29.637Z,67.52
2023-02-27T01:06:56.177Z,68.49
2023-02-27T01:09:22.744Z,67.88
2023-02-27T01:11:49.278Z,69.92
2023-02-27T01:14:15.698Z,69.59
2023-02-27T01:16:42.265Z,69.48
2023-02-27T01:19:08.969Z,68.97
2023-02-27T01:21:35.444Z,69.29
2023-02-27T01:24:02.366Z,69.30
2023-02-27T01:26:29.042Z,69.11
2023-02-27T01:28:55.523Z,69.17
2023-02-27T01:31:21.972Z,69.23
2023-02-27T01:33:49.058Z,69.27
2023-02-27T01:36:15.569Z,69.18
2023-02-27T01:38:42.082Z,69.11
2023-02-27T01:41:08.640Z,70.12
2023-02-27T01:43:53.352Z,69.58
2023-02-27T01:46:19.832Z,69.47
2023-02-27T01:48:46.510Z,69.34
2023-02-27T01:51:21.047Z,71.40
2023-02-27T01:53:53.242Z,73.88
2023-02-27T01:56:29.961Z,73.17
2023-02-27T01:59:03.508Z,72.28
2023-02-27T02:01:32.287Z,70.43
2023-02-27T02:04:26.353Z,71.31
2023-02-27T02:07:01.024Z,71.18
2023-02-27T02:09:29.480Z,71.24
2023-02-27T02:11:57.719Z,70.19
2023-02-27T02:14:24.312Z,70.45
2023-02-27T02:17:05.635Z,71.05
2023-02-27T02:19:47.321Z,71.54
2023-02-27T02:22:38.152Z,71.09
2023-02-27T02:25:42.193Z,71.13
2023-02-27T02:28:35.574Z,71.22
2023-02-27T02:31:17.395Z,72.33
2023-02-27T02:34:03.949Z,71.59
2023-02-27T02:36:51.080Z,71.90
2023-02-27T02:39:25.684Z,72.64
2023-02-27T02:42:02.755Z,71.17
2023-02-27T02:44:50.362Z,72.24
2023-02-27T02:47:38.285Z,71.54
2023-02-27T02:50:22.265Z,72.12
2023-02-27T02:53:18.143Z,72.63
2023-02-27T02:55:51.228Z,72.39
2023-02-27T02:58:49.512Z,73.01
2023-02-27T03:01:34.723Z,73.94
2023-02-27T03:04:12.889Z,72.97
2023-02-27T03:06:52.460Z,73.41
2023-02-27T03:09:27.018Z,73.05
2023-02-27T03:11:55.166Z,72.68
2023-02-27T03:14:21.505Z,72.77
2023-02-27T03:16:53.347Z,72.94
2023-02-27T03:19:25.560Z,72.79
2023-02-27T03:22:09.346Z,73.17
2023-02-27T03:24:53.964Z,73.11
2023-02-27T03:27:22.232Z,72.33
2023-02-27T03:30:05.707Z,73.65
2023-02-27T03:32:56.368Z,73.35
2023-02-27T03:35:29.344Z,73.10
2023-02-27T03:38:04.986Z,73.43
2023-02-27T03:41:08.068Z,73.93
2023-02-27T03:43:48.331Z,73.84
2023-02-27T03:46:19.939Z,73.03
2023-02-27T03:48:47.138Z,73.12
2023-02-27T03:51:17.110Z,74.92
2023-02-27T03:54:16.774Z,74.40
2023-02-27T03:57:03.134Z,74.23
2023-02-27T03:59:30.856Z,73.26
2023-02-27T04:01:58.759Z,75.27
2023-02-27T04:04:28.817Z,74.49
2023-02-27T04:07:20.332Z,74.97
2023-02-27T04:10:15.072Z,75.54
2023-02-27T04:12:50.768Z,75.13
2023-02-27T04:15:29.153Z,74.98
2023-02-27T04:18:19.033Z,74.45
2023-02-27T04:20:53.133Z,75.80
2023-02-27T04:23:33.914Z,74.97
2023-02-27T04:26:17.307Z,74.87
2023-02-27T04:29:18.633Z,75.92
2023-02-27T04:31:54.641Z,75.37
2023-02-27T04:34:30.024Z,75.17
2023-02-27T04:37:02.101Z,75.47
2023-02-27T04:39:34.368Z,75.56
2023-02-27T04:42:10.280Z,75.60
2023-02-27T04:44:39.026Z,75.13
2023-02-27T04:47:08.529Z,75.02
2023-02-27T04:49:40.482Z,74.97
2023-02-27T04:52:15.971Z,75.18
2023-02-27T04:54:59.790Z,76.21
2023-02-27T04:57:41.235Z,75.33
2023-02-27T05:00:12.030Z,75.40
2023-02-27T05:02:43.725Z,75.30
2023-02-27T05:05:16.555Z,75.45
2023-02-27T05:07:50.538Z,76.20
2023-02-27T05:10:29.434Z,76.64
2023-02-27T05:13:05.585Z,76.63
2023-02-27T05:15:38.961Z,76.50
2023-02-27T05:18:09.135Z,76.47
2023-02-27T05:20:47.859Z,77.03
2023-02-27T05:23:44.865Z,77.44
2023-02-27T05:26:20.260Z,76.69
2023-02-27T05:28:55.288Z,76.64
2023-02-27T05:31:28.876Z,76.88
2023-02-27T05:34:28.831Z,77.39
2023-02-27T05:37:18.653Z,77.51
2023-02-27T05:39:48.062Z,77.03
2023-02-27T05:42:26.798Z,77.12
2023-02-27T05:45:04.011Z,77.13
2023-02-27T05:47:34.504Z,77.17
2023-02-27T05:50:13.839Z,77.66
2023-02-27T05:52:42.655Z,77.17
2023-02-27T05:55:18.711Z,77.16
2023-02-27T05:57:57.375Z,78.45
2023-02-27T06:00:48.348Z,77.77
2023-02-27T06:03:15.048Z,77.92
2023-02-27T06:05:46.745Z,78.05
2023-02-27T06:08:13.211Z,77.75
2023-02-27T06:10:39.726Z,78.13
2023-02-27T06:13:06.221Z,78.79
2023-02-27T06:15:32.682Z,78.57
2023-02-27T06:17:59.165Z,78.34
2023-02-27T06:20:25.637Z,78.73
2023-02-27T06:22:52.085Z,78.92
2023-02-27T06:25:18.493Z,78.77
2023-02-27T06:27:44.952Z,78.80
2023-02-27T06:30:11.989Z,78.88
2023-02-27T06:32:38.435Z,79.22
2023-02-27T06:35:06.474Z,79.32
2023-02-27T06:37:33.229Z,79.48
2023-02-27T06:39:59.669Z,79.74
2023-02-27T06:42:26.872Z,79.49
2023-02-27T06:44:53.372Z,79.70
2023-02-27T06:47:19.889Z,80.15
2023-02-27T06:49:46.376Z,81.28
2023-02-27T06:52:12.873Z,81.73
2023-02-27T06:54:39.333Z,82.64
2023-02-27T06:57:06.042Z,82.61
2023-02-27T06:59:32.574Z,82.66
2023-02-27T07:02:00.511Z,81.23
2023-02-27T07:04:26.971Z,80.28
2023-02-27T07:07:33.185Z,79.00
2023-02-27T07:09:39.870Z,76.77
2023-02-27T07:12:07.979Z,75.90
2023-02-27T07:14:34.779Z,74.26
2023-02-27T07:17:04.396Z,72.60
2023-02-27T07:19:36.161Z,71.43
2023-02-27T07:22:02.669Z,69.68
2023-02-27T07:24:29.123Z,68.14
2023-02-27T07:26:55.623Z,66.78
2023-02-27T07:29:22.516Z,66.06
2023-02-27T07:31:49.042Z,64.91
2023-02-27T07:34:15.710Z,64.30
2023-02-27T07:36:43.458Z,62.45
2023-02-27T07:39:12.788Z,62.12
2023-02-27T07:41:39.313Z,61.67
2023-02-27T07:44:08.479Z,59.51
2023-02-27T07:46:35.910Z,60.13
2023-02-27T07:49:02.655Z,58.62
2023-02-27T07:51:29.406Z,58.97
2023-02-27T07:53:58.965Z,57.58
2023-02-27T07:56:27.826Z,56.95
2023-02-27T07:58:54.725Z,58.11
2023-02-27T08:01:21.357Z,56.37
2023-02-27T08:03:47.948Z,55.52
2023-02-27T08:06:14.349Z,55.81
2023-02-27T08:08:40.818Z,55.41
2023-02-27T08:11:07.325Z,54.87
2023-02-27T08:14:00.123Z,55.07
2023-02-27T08:16:21.212Z,55.16
2023-02-27T08:18:47.827Z,50.96
2023-02-27T08:21:14.319Z,53.81
2023-02-27T08:23:42.625Z,52.48
2023-02-27T08:26:09.254Z,51.88
2023-02-27T08:28:35.685Z,50.67
2023-02-27T08:31:02.210Z,51.52
2023-02-27T08:33:28.746Z,49.29
2023-02-27T08:35:55.758Z,49.22
2023-02-27T08:38:22.861Z,49.81
2023-02-27T08:40:54.901Z,50.77
2023-02-27T08:43:22.734Z,48.27
2023-02-27T08:45:50.108Z,45.39
2023-02-27T08:48:18.384Z,44.90
2023-02-27T08:50:46.239Z,44.62
2023-02-27T08:53:13.506Z,47.47
2023-02-27T08:55:40.055Z,44.66
2023-02-27T08:58:06.520Z,45.46
2023-02-27T09:00:32.988Z,47.62
2023-02-27T09:03:00.581Z,44.46
2023-02-27T09:05:28.116Z,47.18
2023-02-27T09:07:54.782Z,40.61
2023-02-27T09:10:21.548Z,43.24
2023-02-27T09:12:49.248Z,41.59
2023-02-27T09:15:15.828Z,40.09
2023-02-27T09:17:42.304Z,44.61
2023-02-27T09:20:09.867Z,41.62
2023-02-27T09:22:36.327Z,40.88
2023-02-27T09:25:03.265Z,41.79
2023-02-27T09:27:29.757Z,43.16
2023-02-27T09:29:56.429Z,36.88
2023-02-27T09:32:23.578Z,39.48
2023-02-27T09:34:50.412Z,42.36
2023-02-27T09:37:18.109Z,39.70
2023-02-27T09:39:46.353Z,40.99
2023-02-27T09:42:20.899Z,41.88
2023-02-27T09:45:02.932Z,41.84
2023-02-27T09:47:39.686Z,43.24
2023-02-27T09:50:24.517Z,41.22
2023-02-27T09:52:51.093Z,42.74
2023-02-27T09:55:20.445Z,43.01
2023-02-27T09:57:58.955Z,42.23
2023-02-27T10:00:43.569Z,42.63
2023-02-27T10:03:29.571Z,41.40
2023-02-27T10:06:08.413Z,42.62
2023-02-27T10:08:34.815Z,41.44
2023-02-27T10:11:06.932Z,41.29
2023-02-27T10:13:41.333Z,41.25
2023-02-27T10:16:13.212Z,43.37
2023-02-27T10:18:54.144Z,42.69
2023-02-27T10:21:33.208Z,42.37
2023-02-27T10:24:07.402Z,44.43
2023-02-27T10:26:39.487Z,43.40
2023-02-27T10:29:29.284Z,41.43
2023-02-27T10:32:21.127Z,41.54
2023-02-27T10:35:16.393Z,40.56
2023-02-27T10:37:47.028Z,39.35
2023-02-27T10:40:16.298Z,39.22
2023-02-27T10:42:43.316Z,39.89
2023-02-27T10:45:17.538Z,40.27
2023-02-27T10:47:44.269Z,39.60
2023-02-27T10:50:29.169Z,40.44
2023-02-27T10:52:58.681Z,41.38
2023-02-27T10:55:32.119Z,41.37
2023-02-27T10:58:01.412Z,41.74
2023-02-27T11:00:31.490Z,41.40
2023-02-27T11:02:58.576Z,43.15
2023-02-27T11:05:31.640Z,42.71
2023-02-27T11:08:12.820Z,42.44
2023-02-27T11:10:53.928Z,42.49
2023-02-27T11:13:22.930Z,42.24
2023-02-27T11:16:07.294Z,42.27
2023-02-27T11:18:35.609Z,41.96
2023-02-27T11:21:22.658Z,42.74
2023-02-27T11:23:50.436Z,42.52
2023-02-27T11:26:22.371Z,42.45
2023-02-27T11:29:08.331Z,43.68
2023-02-27T11:31:37.152Z,43.51
2023-02-27T11:34:04.916Z,42.88
2023-02-27T11:36:47.316Z,42.96
2023-02-27T11:39:25.906Z,41.89
2023-02-27T11:41:54.093Z,42.40
2023-02-27T11:44:34.010Z,42.84
2023-02-27T11:47:23.460Z,45.01
2023-02-27T11:50:32.573Z,44.46
2023-02-27T11:53:25.195Z,44.04
2023-02-27T11:55:55.276Z,44.47
2023-02-27T11:58:26.009Z,46.24
2023-02-27T12:01:03.884Z,46.06
2023-02-27T12:03:35.169Z,46.23
2023-02-27T12:06:10.426Z,45.06
2023-02-27T12:08:46.011Z,46.37
2023-02-27T12:11:31.160Z,45.62
2023-02-27T12:14:13.253Z,45.26
2023-02-27T12:16:51.237Z,44.86
2023-02-27T12:19:34.158Z,44.43
2023-02-27T12:22:09.264Z,44.33
2023-02-27T12:24:53.010Z,43.89
2023-02-27T12:27:24.853Z,43.85
2023-02-27T12:29:56.311Z,44.32
2023-02-27T12:32:22.888Z,44.66
2023-02-27T12:34:59.061Z,43.67
2023-02-27T12:37:29.047Z,44.08
2023-02-27T12:39:59.165Z,42.88
2023-02-27T12:43:00.381Z,42.45
2023-02-27T12:45:48.214Z,43.60
2023-02-27T12:48:23.846Z,44.50
2023-02-27T12:51:17.184Z,44.42
2023-02-27T12:54:12.095Z,43.43
2023-02-27T12:57:03.657Z,43.72
2023-02-27T12:59:36.278Z,44.76
2023-02-27T13:02:17.952Z,43.83
2023-02-27T13:04:47.573Z,44.06
2023-02-27T13:07:25.872Z,44.45
2023-02-27T13:09:57.005Z,44.49
2023-02-27T13:12:50.970Z,43.53
2023-02-27T13:15:42.043Z,43.87
2023-02-27T13:18:34.197Z,45.57
2023-02-27T13:21:11.194Z,44.98
2023-02-27T13:23:37.560Z,44.97
2023-02-27T13:26:15.346Z,45.87
2023-02-27T13:28:42.067Z,46.61
2023-02-27T13:31:47.709Z,44.77
2023-02-27T13:34:22.029Z,45.00
2023-02-27T13:36:57.796Z,45.82
2023-02-27T13:39:52.612Z,44.22
2023-02-27T13:42:27.985Z,43.54
2023-02-27T13:44:56.900Z,43.34
2023-02-27T13:47:29.499Z,43.68
2023-02-27T13:50:02.023Z,44.62
2023-02-27T13:52:33.913Z,44.61
2023-02-27T13:55:11.160Z,43.60
2023-02-27T13:57:38.828Z,43.23
2023-02-27T14:00:20.173Z,42.78
2023-02-27T14:03:20.441Z,43.22
2023-02-27T14:05:51.458Z,43.54
2023-02-27T14:08:28.069Z,42.98
2023-02-27T14:11:00.471Z,43.89
2023-02-27T14:13:45.623Z,44.30
2023-02-27T14:16:37.220Z,42.87
2023-02-27T14:19:28.457Z,43.24
2023-02-27T14:21:56.740Z,44.42
2023-02-27T14:24:33.383Z,44.59
2023-02-27T14:27:00.983Z,44.97
2023-02-27T14:29:33.403Z,45.56
2023-02-27T14:32:04.253Z,45.34
2023-02-27T14:34:31.258Z,44.81
2023-02-27T14:37:02.427Z,45.62
2023-02-27T14:39:33.318Z,45.60
2023-02-27T14:42:11.873Z,44.63
2023-02-27T14:44:43.573Z,44.95
2023-02-27T14:47:25.561Z,45.15
2023-02-27T14:50:12.146Z,46.19
2023-02-27T14:52:43.196Z,46.71
2023-02-27T14:55:18.971Z,46.49
2023-02-27T14:57:57.628Z,46.14
2023-02-27T15:01:03.411Z,47.37
2023-02-27T15:04:00.501Z,47.26
2023-02-27T15:06:40.663Z,47.07
2023-02-27T15:09:07.569Z,47.15
2023-02-27T15:11:34.391Z,47.52
2023-02-27T15:14:06.262Z,47.27
2023-02-27T15:16:38.404Z,47.57
2023-02-27T15:19:16.979Z,47.58
2023-02-27T15:21:49.791Z,47.11
2023-02-27T15:24:49.337Z,46.30
2023-02-27T15:27:20.218Z,46.51
2023-02-27T15:29:56.289Z,47.07
2023-02-27T15:32:30.889Z,47.35
2023-02-27T15:35:01.054Z,47.63
2023-02-27T15:37:33.468Z,48.01
2023-02-27T15:40:01.311Z,47.90
2023-02-27T15:42:31.886Z,47.95
2023-02-27T15:44:59.504Z,48.42
2023-02-27T15:47:28.731Z,47.65
2023-02-27T15:50:01.192Z,47.67
2023-02-27T15:52:38.623Z,47.98
2023-02-27T15:55:13.328Z,48.66
2023-02-27T15:57:40.933Z,49.08
2023-02-27T16:00:11.117Z,49.08
2023-02-27T16:02:45.604Z,49.52
2023-02-27T16:05:18.690Z,49.96
2023-02-27T16:07:47.086Z,49.96
2023-02-27T16:10:24.046Z,50.29
2023-02-27T16:12:50.822Z,50.79
2023-02-27T16:15:31.969Z,50.34
2023-02-27T16:18:09.049Z,49.35
2023-02-27T16:20:50.550Z,49.58
2023-02-27T16:23:22.129Z,49.71
2023-02-27T16:26:23.541Z,49.94
2023-02-27T16:28:56.254Z,50.27
2023-02-27T16:31:24.950Z,50.85
2023-02-27T16:33:52.967Z,50.97
2023-02-27T16:36:23.263Z,51.48
2023-02-27T16:38:49.977Z,51.47
2023-02-27T16:41:19.209Z,51.73
2023-02-27T16:43:47.084Z,51.37
2023-02-27T16:46:20.120Z,51.59
2023-02-27T16:49:14.160Z,51.62
2023-02-27T16:51:45.489Z,52.15
2023-02-27T16:54:13.666Z,52.24
2023-02-27T16:56:40.676Z,52.95
2023-02-27T16:59:07.938Z,52.57
2023-02-27T17:01:34.851Z,52.72
2023-02-27T17:04:01.925Z,52.84
2023-02-27T17:06:29.793Z,53.15
2023-02-27T17:08:57.781Z,53.13
2023-02-27T17:11:24.379Z,53.53
2023-02-27T17:13:51.744Z,53.81
2023-02-27T17:16:18.255Z,53.45
2023-02-27T17:18:44.717Z,53.87
2023-02-27T17:21:11.159Z,54.03
2023-02-27T17:23:37.584Z,54.07
2023-02-27T17:26:04.570Z,54.58
2023-02-27T17:28:31.085Z,54.38
2023-02-27T17:30:57.763Z,54.35
2023-02-27T17:33:24.280Z,54.31
2023-02-27T17:35:52.390Z,54.97
2023-02-27T17:38:18.902Z,55.25
2023-02-27T17:40:45.305Z,56.00
2023-02-27T17:43:11.740Z,55.68
2023-02-27T17:45:38.448Z,55.16
2023-02-27T17:48:05.079Z,55.46
2023-02-27T17:50:32.117Z,55.16
2023-02-27T17:52:58.555Z,55.89
2023-02-27T17:55:25.028Z,56.45
2023-02-27T17:57:51.451Z,56.19
2023-02-27T18:00:18.277Z,56.08
2023-02-27T18:02:45.247Z,55.35
2023-02-27T18:05:12.003Z,56.10
2023-02-27T18:07:38.760Z,56.47
2023-02-27T18:10:06.765Z,56.38
2023-02-27T18:12:33.223Z,57.14
2023-02-27T18:14:59.763Z,56.59
2023-02-27T18:17:26.228Z,57.38
2023-02-27T18:19:52.819Z,56.22
2023-02-27T18:22:21.635Z,57.09
2023-02-27T18:24:49.107Z,56.78
2023-02-27T18:27:15.548Z,57.59
2023-02-27T18:29:42.014Z,57.21
2023-02-27T18:32:08.919Z,57.65
2023-02-27T18:34:35.729Z,57.62
2023-02-27T18:37:02.227Z,57.94
2023-02-27T18:39:28.721Z,58.55
2023-02-27T18:41:55.162Z,58.05
2023-02-27T18:44:21.716Z,58.21
2023-02-27T18:46:48.243Z,58.35
2023-02-27T18:49:15.700Z,58.68
2023-02-27T18:51:42.370Z,57.05
2023-02-27T18:54:12.467Z,57.33
2023-02-27T18:56:38.892Z,57.65
2023-02-27T18:59:06.739Z,57.46
2023-02-27T19:01:37.837Z,57.04
2023-02-27T19:04:06.390Z,57.27
2023-02-27T19:06:35.608Z,57.28
2023-02-27T19:09:05.180Z,57.20
2023-02-27T19:11:35.580Z,57.28
2023-02-27T19:14:04.541Z,57.67
2023-02-27T19:16:31.717Z,57.38
2023-02-27T19:18:59.673Z,57.79
2023-02-27T19:21:26.961Z,57.71
2023-02-27T19:23:53.854Z,58.27
2023-02-27T19:26:20.956Z,58.11
2023-02-27T19:28:54.151Z,58.24
2023-02-27T19:31:23.523Z,58.79
2023-02-27T19:33:50.158Z,58.56
2023-02-27T19:36:19.772Z,58.31
2023-02-27T19:38:46.287Z,58.89
2023-02-27T19:41:14.236Z,58.49
2023-02-27T19:43:41.239Z,58.62
2023-02-27T19:46:10.231Z,58.84
2023-02-27T19:48:37.374Z,59.08
2023-02-27T19:51:09.263Z,59.74
2023-02-27T19:53:37.232Z,59.71
2023-02-27T19:56:06.427Z,58.93
2023-02-27T19:58:33.804Z,59.29
2023-02-27T20:01:00.749Z,59.04
2023-02-27T20:03:27.396Z,58.66
2023-02-27T20:05:53.817Z,58.67
2023-02-27T20:08:20.858Z,59.35
2023-02-27T20:10:55.285Z,60.05
2023-02-27T20:13:21.749Z,60.04
2023-02-27T20:16:05.835Z,61.56
2023-02-27T20:18:32.935Z,60.82
2023-02-27T20:21:05.807Z,60.02
2023-02-27T20:23:34.098Z,60.14
2023-02-27T20:26:00.654Z,60.62
2023-02-27T20:28:28.953Z,60.82
2023-02-27T20:30:55.543Z,60.15
2023-02-27T20:33:22.116Z,61.50
2023-02-27T20:35:48.594Z,61.86
2023-02-27T20:38:17.031Z,62.01
2023-02-27T20:40:43.503Z,61.38
2023-02-27T20:43:09.963Z,60.64
2023-02-27T20:45:39.849Z,61.21
2023-02-27T20:48:07.723Z,60.98
2023-02-27T20:50:34.835Z,62.30
2023-02-27T20:53:01.392Z,61.45
2023-02-27T20:55:27.876Z,61.34
2023-02-27T20:57:54.320Z,61.85
2023-02-27T21:00:21.572Z,62.25
2023-02-27T21:02:48.076Z,62.41
2023-02-27T21:05:15.249Z,61.96
2023-02-27T21:07:42.925Z,62.60
2023-02-27T21:10:10.121Z,61.90
2023-02-27T21:12:36.592Z,62.18
2023-02-27T21:15:03.471Z,63.29
2023-02-27T21:17:29.916Z,63.44
2023-02-27T21:19:56.452Z,62.59
2023-02-27T21:22:23.046Z,63.07
2023-02-27T21:24:51.940Z,63.95
2023-02-27T21:27:20.781Z,62.94
2023-02-27T21:29:48.721Z,64.00
2023-02-27T21:32:15.568Z,63.41
2023-02-27T21:34:42.105Z,64.19
2023-02-27T21:37:10.532Z,64.01
2023-02-27T21:39:36.999Z,63.80
2023-02-27T21:42:03.942Z,63.96
2023-02-27T21:44:31.968Z,63.99
2023-02-27T21:46:58.602Z,63.64
2023-02-27T21:49:27.861Z,64.26
2023-02-27T21:51:55.269Z,63.98
2023-02-27T21:54:22.436Z,63.12
2023-02-27T21:56:49.421Z,63.66
2023-02-27T21:59:17.250Z,63.14
2023-02-27T22:01:47.340Z,62.98
2023-02-27T22:04:18.685Z,63.42
2023-02-27T22:06:45.177Z,63.80
2023-02-27T22:09:11.827Z,64.26
2023-02-27T22:11:40.776Z,62.98
2023-02-27T22:14:08.436Z,62.72
2023-02-27T22:16:35.614Z,63.78
2023-02-27T22:19:10.528Z,64.35
2023-02-27T22:21:38.344Z,64.72
2023-02-27T22:24:06.230Z,64.27
2023-02-27T22:26:33.342Z,63.77
2023-02-27T22:28:59.974Z,63.73
2023-02-27T22:31:32.689Z,64.47
2023-02-27T22:34:03.552Z,64.66
2023-02-27T22:36:31.424Z,64.57
2023-02-27T22:38:58.911Z,65.22
2023-02-27T22:41:34.005Z,66.00
2023-02-27T22:44:01.970Z,65.52
2023-02-27T22:46:33.629Z,64.76
2023-02-27T22:49:03.091Z,64.31
2023-02-27T22:51:30.377Z,64.38
2023-02-27T22:53:59.148Z,65.58
2023-02-27T22:56:26.465Z,65.06
2023-02-27T22:58:53.478Z,64.38
2023-02-27T23:01:23.393Z,64.38
2023-02-27T23:03:51.960Z,63.76
2023-02-27T23:06:25.061Z,64.00
2023-02-27T23:08:52.096Z,63.65
2023-02-27T23:11:20.468Z,63.66
2023-02-27T23:13:47.620Z,64.24
2023-02-27T23:16:14.321Z,64.30
2023-02-27T23:18:48.826Z,64.54
2023-02-27T23:21:16.976Z,64.39
2023-02-27T23:23:43.731Z,64.87
2023-02-27T23:26:10.171Z,65.52
2023-02-27T23:28:37.510Z,65.81
2023-02-27T23:31:05.917Z,66.41
2023-02-27T23:33:32.584Z,65.01
2023-02-27T23:35:59.188Z,65.45
2023-02-27T23:38:26.038Z,66.13
2023-02-27T23:40:53.055Z,65.15
2023-02-27T23:43:19.838Z,66.31
2023-02-27T23:45:46.464Z,66.95
2023-02-27T23:48:13.030Z,68.20
2023-02-27T23:50:43.724Z,66.49
2023-02-27T23:53:13.327Z,66.20
2023-02-27T23:55:40.870Z,67.12
2023-02-27T23:58:09.576Z,67.96
